createdAt,value
2019-01-21T00:01:44.495Z,41.60
2019-01-21T00:04:15.995Z,40.35
2019-01-21T00:06:46.154Z,45.92
2019-01-21T00:09:16.359Z,41.20
2019-01-21T00:11:46.507Z,46.45
2019-01-21T00:14:16.675Z,46.15
2019-01-21T00:16:46.878Z,48.90
2019-01-21T00:19:17.079Z,49.93
2019-01-21T00:21:47.264Z,50.28
2019-01-21T00:24:17.451Z,53.85
2019-01-21T00:26:48.709Z,45.60
2019-01-21T00:29:18.908Z,49.18
2019-01-21T00:31:49.084Z,45.80
2019-01-21T00:34:19.260Z,42.03
2019-01-21T00:36:49.466Z,42.78
2019-01-21T00:39:19.631Z,43.58
2019-01-21T00:41:49.809Z,47.55
2019-01-21T00:44:19.999Z,44.63
2019-01-21T00:46:50.179Z,48.68
2019-01-21T00:49:20.334Z,48.75
2019-01-21T00:51:50.530Z,45.52
2019-01-21T00:54:20.700Z,40.48
2019-01-21T00:56:50.876Z,41.73
2019-01-21T00:59:21.114Z,41.30
2019-01-21T01:01:51.284Z,44.85
2019-01-21T01:04:21.435Z,43.40
2019-01-21T01:06:51.615Z,49.93
2019-01-21T01:09:23.270Z,42.65
2019-01-21T01:11:53.548Z,48.60
2019-01-21T01:14:23.699Z,46.33
2019-01-21T01:16:53.879Z,45.80
2019-01-21T01:19:24.060Z,46.23
2019-01-21T01:21:54.244Z,54.08
2019-01-21T01:24:24.434Z,45.40
2019-01-21T01:26:54.634Z,53.68
2019-01-21T01:29:24.843Z,50.67
2019-01-21T01:31:55.023Z,42.25
2019-01-21T01:34:25.210Z,46.70
2019-01-21T01:36:55.363Z,46.05
2019-01-21T01:39:25.546Z,44.80
2019-01-21T01:41:55.743Z,49.30
2019-01-21T01:44:25.878Z,42.00
2019-01-21T01:46:56.071Z,42.73
2019-01-21T01:49:26.240Z,42.30
2019-01-21T01:51:56.433Z,44.83
2019-01-21T01:54:26.795Z,40.75
2019-01-21T01:56:57.247Z,44.03
2019-01-21T01:59:27.419Z,42.98
2019-01-21T02:01:57.588Z,34.58
2019-01-21T02:04:27.774Z,38.25
2019-01-21T02:06:57.945Z,37.10
2019-01-21T02:09:28.135Z,39.40
2019-01-21T02:11:58.300Z,36.90
2019-01-21T02:14:28.456Z,36.28
2019-01-21T02:17:01.615Z,46.65
2019-01-21T02:19:32.758Z,35.20
2019-01-21T02:22:03.496Z,42.27
2019-01-21T02:24:39.286Z,44.33
2019-01-21T02:27:19.576Z,38.35
2019-01-21T02:30:32.913Z,39.30
2019-01-21T02:34:05.591Z,45.23
2019-01-21T02:37:02.030Z,39.80
2019-01-21T02:39:51.975Z,53.40
2019-01-21T02:42:56.291Z,40.70
2019-01-21T02:46:23.599Z,41.40
2019-01-21T02:49:18.701Z,41.37
2019-01-21T02:52:44.622Z,46.70
2019-01-21T02:55:47.108Z,47.62
2019-01-21T02:58:43.253Z,47.78
2019-01-21T03:02:02.203Z,38.28
2019-01-21T03:05:21.676Z,37.60
2019-01-21T03:08:28.956Z,40.08
2019-01-21T03:11:19.729Z,43.95
2019-01-21T03:14:28.836Z,42.53
2019-01-21T03:17:42.667Z,41.23
2019-01-21T03:20:29.315Z,47.27
2019-01-21T03:23:35.912Z,39.58
2019-01-21T03:26:53.149Z,41.02
2019-01-21T03:30:06.504Z,71.30
2019-01-21T03:33:08.017Z,212.05
2019-01-21T03:36:43.560Z,129.18
2019-01-21T03:40:01.629Z,127.85
2019-01-21T03:42:43.528Z,83.78
2019-01-21T03:45:39.630Z,87.85
2019-01-21T03:48:21.572Z,90.47
2019-01-21T03:51:34.704Z,138.82
2019-01-21T03:54:18.094Z,85.17
2019-01-21T03:57:28.769Z,50.67
2019-01-21T04:00:20.499Z,39.70
2019-01-21T04:03:07.112Z,45.08
2019-01-21T04:06:15.169Z,37.78
2019-01-21T04:09:29.951Z,34.92
2019-01-21T04:12:30.884Z,38.78
2019-01-21T04:15:47.067Z,37.58
2019-01-21T04:18:55.427Z,43.60
2019-01-21T04:22:02.487Z,39.25
2019-01-21T04:25:01.473Z,41.58
2019-01-21T04:28:27.861Z,44.42
2019-01-21T04:31:26.096Z,41.28
2019-01-21T04:34:45.068Z,52.53
2019-01-21T04:37:39.580Z,51.05
2019-01-21T04:40:53.480Z,47.13
2019-01-21T04:43:49.037Z,44.63
2019-01-21T04:46:52.839Z,42.20
2019-01-21T04:49:52.885Z,49.95
2019-01-21T04:53:03.711Z,41.73
2019-01-21T04:55:57.904Z,43.83
2019-01-21T04:59:17.062Z,45.12
2019-01-21T05:02:26.943Z,39.33
2019-01-21T05:05:53.381Z,48.95
2019-01-21T05:08:55.208Z,49.55
2019-01-21T05:12:06.191Z,47.23
2019-01-21T05:15:12.536Z,43.38
2019-01-21T05:18:21.187Z,50.90
2019-01-21T05:21:31.432Z,49.33
2019-01-21T05:24:57.648Z,42.35
2019-01-21T05:28:08.850Z,42.58
2019-01-21T05:31:11.900Z,40.50
2019-01-21T05:34:13.821Z,41.95
2019-01-21T05:37:30.852Z,39.45
2019-01-21T05:40:27.644Z,42.10
2019-01-21T05:43:56.969Z,44.10
2019-01-21T05:47:16.004Z,39.83
2019-01-21T05:50:39.576Z,40.00
2019-01-21T05:53:49.806Z,43.48
2019-01-21T05:56:54.409Z,41.35
2019-01-21T06:00:05.051Z,43.10
2019-01-21T06:03:06.339Z,43.90
2019-01-21T06:06:16.572Z,54.27
2019-01-21T06:09:24.004Z,45.52
2019-01-21T06:12:20.056Z,46.75
2019-01-21T06:15:26.935Z,49.05
2019-01-21T06:18:32.984Z,48.25
2019-01-21T06:21:46.094Z,47.13
2019-01-21T06:24:42.201Z,44.73
2019-01-21T06:27:59.855Z,48.10
2019-01-21T06:31:12.376Z,51.05
2019-01-21T06:34:15.881Z,46.37
2019-01-21T06:37:26.228Z,50.48
2019-01-21T06:40:08.568Z,52.05
2019-01-21T06:43:18.382Z,44.77
2019-01-21T06:46:21.673Z,40.88
2019-01-21T06:49:36.307Z,48.90
2019-01-21T06:52:42.500Z,48.85
2019-01-21T06:55:46.774Z,48.95
2019-01-21T06:58:50.727Z,47.40
2019-01-21T07:01:53.116Z,50.15
2019-01-21T07:04:51.274Z,51.90
2019-01-21T07:07:43.174Z,50.28
2019-01-21T07:10:33.933Z,55.48
2019-01-21T07:13:32.074Z,52.05
2019-01-21T07:16:37.640Z,55.75
2019-01-21T07:19:47.771Z,75.65
2019-01-21T07:22:48.339Z,56.70
2019-01-21T07:26:11.964Z,62.03
2019-01-21T07:29:33.564Z,54.30
2019-01-21T07:32:49.590Z,55.78
2019-01-21T07:35:43.418Z,52.80
2019-01-21T07:38:51.391Z,54.65
2019-01-21T07:41:59.208Z,56.05
2019-01-21T07:44:56.724Z,65.45
2019-01-21T07:47:59.697Z,53.10
2019-01-21T07:51:09.950Z,58.15
2019-01-21T07:54:24.370Z,68.72
2019-01-21T07:57:38.895Z,47.23
2019-01-21T08:00:45.916Z,52.13
2019-01-21T08:03:58.929Z,51.28
2019-01-21T08:06:58.585Z,56.88
2019-01-21T08:10:11.423Z,53.20
2019-01-21T08:13:09.680Z,60.43
2019-01-21T08:16:22.651Z,74.03
2019-01-21T08:19:31.507Z,78.85
2019-01-21T08:22:37.494Z,70.87
2019-01-21T08:25:50.552Z,59.98
2019-01-21T08:29:23.245Z,41.30
2019-01-21T08:32:49.575Z,47.40
2019-01-21T08:35:42.584Z,47.83
2019-01-21T08:38:52.523Z,52.17
2019-01-21T08:42:03.587Z,53.27
2019-01-21T08:44:51.215Z,50.63
2019-01-21T08:47:27.902Z,48.23
2019-01-21T08:50:22.812Z,49.80
2019-01-21T08:53:33.143Z,40.30
2019-01-21T08:56:44.061Z,50.57
2019-01-21T08:59:36.655Z,47.40
2019-01-21T09:02:56.766Z,43.03
2019-01-21T09:05:56.202Z,50.90
2019-01-21T09:09:14.673Z,67.40
2019-01-21T09:12:24.019Z,50.40
2019-01-21T09:15:35.622Z,53.87
2019-01-21T09:18:45.815Z,45.93
2019-01-21T09:21:38.923Z,46.33
2019-01-21T09:24:36.800Z,57.97
2019-01-21T09:27:39.324Z,42.07
2019-01-21T09:30:55.005Z,46.93
2019-01-21T09:33:52.978Z,47.27
2019-01-21T09:36:54.832Z,46.50
2019-01-21T09:39:49.903Z,44.77
2019-01-21T09:42:46.165Z,55.53
2019-01-21T09:45:53.250Z,45.90
2019-01-21T09:48:21.803Z,43.07
2019-01-21T09:50:52.434Z,42.47
2019-01-21T09:53:22.867Z,42.60
2019-01-21T09:55:54.995Z,46.73
2019-01-21T09:58:27.220Z,41.80
2019-01-21T10:00:59.080Z,45.37
2019-01-21T10:03:30.183Z,44.37
2019-01-21T10:06:07.911Z,46.07
2019-01-21T10:09:31.751Z,43.50
2019-01-21T10:12:38.948Z,48.70
2019-01-21T10:15:33.473Z,44.20
2019-01-21T10:18:30.603Z,44.40
2019-01-21T10:21:36.733Z,43.87
2019-01-21T10:24:37.300Z,43.07
2019-01-21T10:27:56.216Z,39.30
2019-01-21T10:31:12.165Z,41.37
2019-01-21T10:34:39.735Z,44.50
2019-01-21T10:37:57.482Z,40.10
2019-01-21T10:40:55.419Z,38.90
2019-01-21T10:44:00.617Z,37.73
2019-01-21T10:47:14.762Z,47.87
2019-01-21T10:50:28.484Z,44.07
2019-01-21T10:53:45.776Z,39.13
2019-01-21T10:56:51.493Z,44.63
2019-01-21T10:59:58.680Z,37.10
2019-01-21T11:02:53.247Z,46.40
2019-01-21T11:06:08.027Z,48.80
2019-01-21T11:09:05.745Z,46.23
2019-01-21T11:12:29.275Z,42.03
2019-01-21T11:15:40.144Z,45.67
2019-01-21T11:18:46.394Z,40.30
2019-01-21T11:21:46.762Z,39.30
2019-01-21T11:24:49.799Z,39.20
2019-01-21T11:27:56.736Z,42.90
2019-01-21T11:31:06.675Z,38.47
2019-01-21T11:34:27.071Z,35.17
2019-01-21T11:37:34.440Z,42.73
2019-01-21T11:40:45.770Z,34.90
2019-01-21T11:44:05.884Z,39.20
2019-01-21T11:47:26.174Z,44.63
2019-01-21T11:50:25.380Z,34.03
2019-01-21T11:53:13.039Z,35.80
2019-01-21T11:56:21.602Z,31.00
2019-01-21T11:59:28.492Z,28.27
2019-01-21T12:02:29.606Z,33.70
2019-01-21T12:05:42.801Z,35.70
2019-01-21T12:08:52.380Z,27.63
2019-01-21T12:11:51.728Z,30.87
2019-01-21T12:14:57.980Z,36.27
2019-01-21T12:17:44.064Z,33.37
2019-01-21T12:20:42.555Z,32.83
2019-01-21T12:23:32.684Z,31.73
2019-01-21T12:26:20.502Z,30.70
2019-01-21T12:29:18.803Z,34.70
2019-01-21T12:32:39.249Z,31.27
2019-01-21T12:35:43.896Z,28.60
2019-01-21T12:39:04.467Z,26.67
2019-01-21T12:42:33.115Z,30.60
2019-01-21T12:45:38.646Z,33.17
2019-01-21T12:48:33.559Z,29.87
2019-01-21T12:51:25.760Z,32.57
2019-01-21T12:54:45.868Z,30.97
2019-01-21T12:57:54.239Z,25.93
2019-01-21T13:01:10.241Z,37.80
2019-01-21T13:04:28.575Z,37.70
2019-01-21T13:07:11.582Z,37.60
2019-01-21T13:10:05.435Z,35.37
2019-01-21T13:13:41.175Z,39.33
2019-01-21T13:16:27.354Z,32.20
2019-01-21T13:19:53.716Z,39.10
2019-01-21T13:22:55.372Z,35.50
2019-01-21T13:26:16.383Z,33.10
2019-01-21T13:29:29.124Z,33.77
2019-01-21T13:32:12.197Z,32.37
2019-01-21T13:35:13.279Z,34.80
2019-01-21T13:38:26.370Z,33.90
2019-01-21T13:41:40.128Z,33.20
2019-01-21T13:45:03.171Z,34.93
2019-01-21T13:47:56.671Z,30.27
2019-01-21T13:50:54.631Z,33.83
2019-01-21T13:54:03.336Z,32.77
2019-01-21T13:56:58.716Z,25.50
2019-01-21T13:59:53.878Z,32.93
2019-01-21T14:02:52.268Z,32.87
2019-01-21T14:05:50.616Z,29.50
2019-01-21T14:09:06.602Z,32.57
2019-01-21T14:12:19.855Z,29.60
2019-01-21T14:15:17.239Z,30.77
2019-01-21T14:18:49.436Z,33.60
2019-01-21T14:22:09.882Z,34.90
2019-01-21T14:25:13.092Z,30.20
2019-01-21T14:28:29.366Z,33.40
2019-01-21T14:31:43.369Z,29.93
2019-01-21T14:35:12.899Z,35.20
2019-01-21T14:38:18.866Z,32.23
2019-01-21T14:41:28.322Z,31.70
2019-01-21T14:44:39.475Z,34.70
2019-01-21T14:47:37.507Z,32.67
2019-01-21T14:50:17.156Z,29.63
2019-01-21T14:53:16.760Z,32.07
2019-01-21T14:56:04.187Z,34.07
2019-01-21T14:59:08.803Z,40.50
2019-01-21T15:02:14.464Z,30.93
2019-01-21T15:05:19.349Z,28.77
2019-01-21T15:08:32.937Z,28.67
2019-01-21T15:11:39.145Z,30.70
2019-01-21T15:14:52.369Z,37.30
2019-01-21T15:18:01.162Z,33.80
2019-01-21T15:21:15.513Z,32.87
2019-01-21T15:24:18.040Z,37.20
2019-01-21T15:27:08.198Z,39.10
2019-01-21T15:30:17.612Z,31.93
2019-01-21T15:33:28.589Z,36.30
2019-01-21T15:36:38.679Z,43.70
2019-01-21T15:39:40.163Z,40.73
2019-01-21T15:43:00.576Z,36.80
2019-01-21T15:45:53.355Z,48.83
2019-01-21T15:49:10.872Z,48.13
2019-01-21T15:52:05.180Z,44.93
2019-01-21T15:55:15.926Z,43.07
2019-01-21T15:58:09.008Z,43.33
2019-01-21T16:01:04.487Z,38.70
2019-01-21T16:03:58.577Z,41.53
2019-01-21T16:06:54.584Z,40.27
2019-01-21T16:10:02.016Z,42.23
2019-01-21T16:13:03.773Z,45.30
2019-01-21T16:16:14.802Z,47.10
2019-01-21T16:18:52.739Z,42.73
2019-01-21T16:22:01.608Z,47.53
2019-01-21T16:25:18.008Z,46.33
2019-01-21T16:28:53.684Z,54.30
2019-01-21T16:31:37.976Z,61.63
2019-01-21T16:34:33.028Z,56.83
2019-01-21T16:37:44.211Z,55.37
2019-01-21T16:41:04.052Z,51.03
2019-01-21T16:43:34.247Z,47.40
2019-01-21T16:46:04.428Z,56.23
2019-01-21T16:48:36.378Z,52.40
2019-01-21T16:51:06.579Z,49.97
2019-01-21T16:53:36.739Z,48.97
2019-01-21T16:56:07.034Z,52.20
2019-01-21T16:58:37.248Z,50.93
2019-01-21T17:01:07.575Z,55.65
2019-01-21T17:03:37.870Z,55.15
2019-01-21T17:06:09.812Z,63.77
2019-01-21T17:08:39.994Z,65.23
2019-01-21T17:11:10.347Z,63.28
2019-01-21T17:13:40.716Z,72.33
2019-01-21T17:16:10.915Z,68.80
2019-01-21T17:18:41.223Z,65.40
2019-01-21T17:21:11.448Z,62.37
2019-01-21T17:23:42.036Z,69.43
2019-01-21T17:26:12.334Z,72.10
2019-01-21T17:28:42.548Z,61.30
2019-01-21T17:31:12.737Z,63.87
2019-01-21T17:33:42.928Z,65.77
2019-01-21T17:36:13.108Z,57.97
2019-01-21T17:38:43.307Z,67.42
2019-01-21T17:41:13.497Z,55.53
2019-01-21T17:43:43.727Z,62.70
2019-01-21T17:46:13.931Z,58.70
2019-01-21T17:48:44.136Z,63.30
2019-01-21T17:51:14.428Z,59.63
2019-01-21T17:53:51.015Z,64.92
2019-01-21T17:56:16.584Z,86.67
2019-01-21T17:58:46.791Z,68.57
2019-01-21T18:01:16.963Z,118.73
2019-01-21T18:03:47.247Z,105.58
2019-01-21T18:06:17.537Z,98.42
2019-01-21T18:08:47.825Z,75.30
2019-01-21T18:11:18.248Z,76.37
2019-01-21T18:13:48.536Z,72.10
2019-01-21T18:16:18.744Z,67.67
2019-01-21T18:18:49.075Z,67.20
2019-01-21T18:21:19.453Z,64.13
2019-01-21T18:23:49.667Z,66.10
2019-01-21T18:26:19.926Z,68.33
2019-01-21T18:28:50.321Z,71.07
2019-01-21T18:31:20.546Z,67.15
2019-01-21T18:33:50.856Z,69.95
2019-01-21T18:36:21.049Z,68.28
2019-01-21T18:38:51.349Z,62.43
2019-01-21T18:41:21.597Z,65.50
2019-01-21T18:43:52.223Z,61.15
2019-01-21T18:46:22.537Z,74.70
2019-01-21T18:48:53.096Z,65.90
2019-01-21T18:51:23.643Z,73.65
2019-01-21T18:53:54.040Z,69.45
2019-01-21T18:56:24.239Z,67.97
2019-01-21T18:58:54.524Z,69.05
2019-01-21T19:01:24.746Z,69.15
2019-01-21T19:03:54.988Z,70.65
2019-01-21T19:06:25.417Z,70.35
2019-01-21T19:08:55.877Z,67.35
2019-01-21T19:11:26.259Z,75.78
2019-01-21T19:13:56.627Z,71.02
2019-01-21T19:16:26.851Z,72.00
2019-01-21T19:18:57.080Z,73.37
2019-01-21T19:21:27.272Z,66.60
2019-01-21T19:23:57.504Z,67.82
2019-01-21T19:26:27.727Z,64.27
2019-01-21T19:28:57.952Z,75.17
2019-01-21T19:31:28.203Z,104.47
2019-01-21T19:33:58.453Z,75.67
2019-01-21T19:36:28.802Z,103.58
2019-01-21T19:38:59.090Z,68.17
2019-01-21T19:41:29.298Z,67.12
2019-01-21T19:43:59.492Z,67.58
2019-01-21T19:46:29.683Z,73.50
2019-01-21T19:49:00.005Z,74.75
2019-01-21T19:51:30.198Z,64.55
2019-01-21T19:54:00.420Z,73.97
2019-01-21T19:56:30.611Z,73.72
2019-01-21T19:59:00.843Z,73.87
2019-01-21T20:01:32.501Z,69.42
2019-01-21T20:04:04.079Z,70.67
2019-01-21T20:06:34.310Z,68.87
2019-01-21T20:09:08.357Z,75.70
2019-01-21T20:11:38.586Z,82.40
2019-01-21T20:14:08.768Z,83.67
2019-01-21T20:16:39.024Z,69.85
2019-01-21T20:19:09.220Z,63.55
2019-01-21T20:21:39.509Z,65.32
2019-01-21T20:24:09.766Z,74.58
2019-01-21T20:26:39.975Z,66.00
2019-01-21T20:29:10.211Z,70.60
2019-01-21T20:31:40.488Z,70.30
2019-01-21T20:34:10.723Z,69.07
2019-01-21T20:36:40.934Z,59.65
2019-01-21T20:39:11.223Z,75.20
2019-01-21T20:41:41.441Z,68.42
2019-01-21T20:44:11.711Z,59.93
2019-01-21T20:46:41.883Z,64.90
2019-01-21T20:49:13.914Z,64.92
2019-01-21T20:51:44.208Z,71.92
2019-01-21T20:54:15.863Z,80.62
2019-01-21T20:56:46.070Z,68.65
2019-01-21T20:59:16.263Z,63.85
2019-01-21T21:01:46.436Z,67.50
2019-01-21T21:04:16.664Z,61.58
2019-01-21T21:06:46.783Z,68.42
2019-01-21T21:09:16.960Z,65.45
2019-01-21T21:11:47.054Z,75.57
2019-01-21T21:14:17.132Z,58.35
2019-01-21T21:16:47.352Z,68.80
2019-01-21T21:19:17.373Z,59.38
2019-01-21T21:21:47.484Z,67.35
2019-01-21T21:24:17.625Z,64.30
2019-01-21T21:26:49.520Z,58.40
2019-01-21T21:29:19.619Z,66.65
2019-01-21T21:31:49.750Z,54.27
2019-01-21T21:34:19.827Z,59.15
2019-01-21T21:36:49.869Z,57.17
2019-01-21T21:39:20.022Z,58.78
2019-01-21T21:41:50.169Z,55.45
2019-01-21T21:44:21.266Z,58.38
2019-01-21T21:46:51.507Z,65.30
2019-01-21T21:49:21.560Z,60.65
2019-01-21T21:51:51.606Z,57.53
2019-01-21T21:54:21.661Z,65.87
2019-01-21T21:56:51.714Z,59.50
2019-01-21T21:59:21.806Z,52.95
2019-01-21T22:01:51.906Z,56.45
2019-01-21T22:04:21.999Z,51.08
2019-01-21T22:06:52.341Z,74.22
2019-01-21T22:09:22.498Z,56.00
2019-01-21T22:11:52.684Z,55.85
2019-01-21T22:14:22.741Z,61.20
2019-01-21T22:16:52.856Z,58.80
2019-01-21T22:19:22.985Z,54.23
2019-01-21T22:21:53.575Z,61.35
2019-01-21T22:24:23.797Z,68.20
2019-01-21T22:26:53.980Z,64.20
2019-01-21T22:29:24.161Z,64.97
2019-01-21T22:31:54.427Z,52.13
2019-01-21T22:34:25.008Z,66.97
2019-01-21T22:36:55.159Z,67.60
2019-01-21T22:39:25.351Z,65.57
2019-01-21T22:41:55.522Z,65.32
2019-01-21T22:44:25.678Z,60.80
2019-01-21T22:46:55.875Z,55.10
2019-01-21T22:49:26.042Z,63.63
2019-01-21T22:51:56.204Z,55.67
2019-01-21T22:54:26.366Z,73.05
2019-01-21T22:56:56.634Z,55.95
2019-01-21T22:59:26.825Z,64.40
2019-01-21T23:01:57.089Z,71.00
2019-01-21T23:04:27.311Z,56.40
2019-01-21T23:06:57.551Z,66.97
2019-01-21T23:09:28.020Z,55.90
2019-01-21T23:11:58.169Z,54.13
2019-01-21T23:14:28.370Z,62.33
2019-01-21T23:16:58.652Z,59.80
2019-01-21T23:19:28.856Z,54.80
2019-01-21T23:21:59.364Z,49.38
2019-01-21T23:24:29.516Z,56.90
2019-01-21T23:26:59.691Z,55.92
2019-01-21T23:29:29.859Z,52.38
2019-01-21T23:32:00.053Z,56.10
2019-01-21T23:34:30.475Z,51.18
2019-01-21T23:37:00.669Z,51.02
2019-01-21T23:39:30.832Z,62.43
2019-01-21T23:42:01.080Z,49.85
2019-01-21T23:44:31.336Z,48.60
2019-01-21T23:47:01.996Z,52.40
2019-01-21T23:49:32.266Z,50.73
2019-01-21T23:52:02.434Z,48.55
2019-01-21T23:54:32.728Z,53.70
2019-01-21T23:57:02.977Z,59.25
2019-01-21T23:59:33.425Z,51.65
